PBD632 USSS-URMM
Flight info
| Callsign | PBD632 |
|---|---|
| Flight time | N/A |
| Altitude | 36000 |
| Route | INLEB DCT IMANA L992 SANIR DCT RIMUN DCT KURUL DCT KODUM DCT IPLED DCT GOTIK DCT MEMZA A962 OKARU |
| Aircraft | B738/M-SDE2E3FGHIRWXY/LB1 |
Departure
| Time | 2026-05-04 18:01 |
|---|---|
| Airport | Koltsovo Airport (USSS) |
Arrival
| Time | N/A |
|---|---|
| Airport | Mineralnye Vody Airport (URMM) |
| Time | Latitude | Longitude | Altitude | Speed | Heading |
|---|---|---|---|---|---|
| 2026-05-04 17:40 | 56.74927 | 60.79834 | 776 ft | 0 kts | 360° |
| 2026-05-04 17:52 | 56.74910 | 60.79835 | 776 ft | 4 kts | 360° |
| 2026-05-04 17:52 | 56.74884 | 60.79834 | 776 ft | 4 kts | 4° |
| 2026-05-04 17:53 | 56.74867 | 60.79829 | 776 ft | 2 kts | 25° |
| 2026-05-04 17:53 | 56.74858 | 60.79816 | 776 ft | 2 kts | 72° |
| 2026-05-04 17:53 | 56.74856 | 60.79796 | 776 ft | 2 kts | 91° |
| 2026-05-04 17:53 | 56.74857 | 60.79776 | 776 ft | 1 kts | 94° |
| 2026-05-04 17:56 | 56.74856 | 60.79809 | 776 ft | 6 kts | 94° |
| 2026-05-04 17:56 | 56.74853 | 60.79939 | 776 ft | 14 kts | 89° |
| 2026-05-04 17:56 | 56.74853 | 60.80075 | 776 ft | 1 kts | 90° |
| 2026-05-04 17:56 | 56.74853 | 60.80114 | 776 ft | 8 kts | 89° |
| 2026-05-04 17:57 | 56.74853 | 60.80299 | 776 ft | 20 kts | 90° |
| 2026-05-04 17:57 | 56.74851 | 60.80608 | 776 ft | 25 kts | 91° |
| 2026-05-04 17:57 | 56.74851 | 60.80919 | 776 ft | 24 kts | 91° |
| 2026-05-04 17:57 | 56.74863 | 60.81209 | 776 ft | 23 kts | 91° |
| 2026-05-04 17:58 | 56.74862 | 60.81493 | 776 ft | 22 kts | 90° |
| 2026-05-04 17:58 | 56.74861 | 60.81768 | 776 ft | 21 kts | 90° |
| 2026-05-04 17:58 | 56.74811 | 60.82016 | 776 ft | 21 kts | 117° |
| 2026-05-04 17:58 | 56.74727 | 60.82202 | 776 ft | 19 kts | 175° |
| 2026-05-04 17:59 | 56.74595 | 60.82203 | 776 ft | 19 kts | 179° |
| 2026-05-04 17:59 | 56.74467 | 60.82204 | 778 ft | 18 kts | 182° |
| 2026-05-04 17:59 | 56.74219 | 60.82168 | 776 ft | 17 kts | 185° |
| 2026-05-04 18:00 | 56.74098 | 60.82154 | 771 ft | 18 kts | 186° |
| 2026-05-04 18:00 | 56.74069 | 60.82021 | 771 ft | 12 kts | 274° |
| 2026-05-04 18:00 | 56.74079 | 60.81773 | 771 ft | 43 kts | 274° |
| 2026-05-04 18:00 | 56.74118 | 60.80818 | 773 ft | 107 kts | 275° |
| 2026-05-04 18:01 | 56.74182 | 60.79127 | 778 ft | 159 kts | 275° |
| 2026-05-04 18:01 | 56.74228 | 60.77006 | 1247 ft | 164 kts | 269° |
| 2026-05-04 18:01 | 56.74255 | 60.74911 | 1918 ft | 169 kts | 274° |
| 2026-05-04 18:02 | 56.74504 | 60.70016 | 2600 ft | 219 kts | 277° |
| 2026-05-04 18:02 | 56.74635 | 60.67152 | 3071 ft | 233 kts | 277° |
| 2026-05-04 18:02 | 56.74759 | 60.64052 | 3399 ft | 254 kts | 273° |
| 2026-05-04 18:02 | 56.74369 | 60.60879 | 4233 ft | 262 kts | 244° |
| 2026-05-04 18:03 | 56.73212 | 60.58243 | 5044 ft | 272 kts | 219° |
| 2026-05-04 18:03 | 56.71497 | 60.56829 | 5891 ft | 280 kts | 189° |
| 2026-05-04 18:03 | 56.69509 | 60.56782 | 6738 ft | 286 kts | 180° |
| 2026-05-04 18:03 | 56.67515 | 60.56953 | 7625 ft | 285 kts | 178° |
| 2026-05-04 18:04 | 56.65539 | 60.57179 | 8560 ft | 285 kts | 177° |
| 2026-05-04 18:04 | 56.63550 | 60.57410 | 9390 ft | 288 kts | 180° |
| 2026-05-04 18:04 | 56.59808 | 60.54846 | 10399 ft | 311 kts | 223° |
| 2026-05-04 18:05 | 56.58197 | 60.52022 | 10605 ft | 333 kts | 226° |
| 2026-05-04 18:05 | 56.56543 | 60.48947 | 10780 ft | 355 kts | 226° |
| 2026-05-04 18:05 | 56.54772 | 60.45630 | 10943 ft | 376 kts | 226° |
| 2026-05-04 18:05 | 56.52915 | 60.42180 | 11340 ft | 387 kts | 226° |
| 2026-05-04 18:06 | 56.49090 | 60.35167 | 12678 ft | 394 kts | 226° |
| 2026-05-04 18:06 | 56.47149 | 60.31637 | 13368 ft | 397 kts | 226° |
| 2026-05-04 18:06 | 56.45192 | 60.28086 | 13977 ft | 400 kts | 225° |
| 2026-05-04 18:07 | 56.43217 | 60.24510 | 14547 ft | 404 kts | 225° |
| 2026-05-04 18:07 | 56.41165 | 60.21024 | 15118 ft | 408 kts | 217° |
| 2026-05-04 18:07 | 56.38644 | 60.18647 | 15674 ft | 412 kts | 198° |
| 2026-05-04 18:07 | 56.35858 | 60.17368 | 16286 ft | 414 kts | 194° |
| 2026-05-04 18:08 | 56.33036 | 60.16188 | 16819 ft | 418 kts | 193° |
| 2026-05-04 18:08 | 56.30185 | 60.15007 | 17357 ft | 422 kts | 193° |
| 2026-05-04 18:08 | 56.27317 | 60.13809 | 17893 ft | 425 kts | 194° |
| 2026-05-04 18:08 | 56.24423 | 60.12586 | 18406 ft | 428 kts | 194° |
| 2026-05-04 18:09 | 56.18612 | 60.10098 | 19474 ft | 429 kts | 195° |
| 2026-05-04 18:09 | 56.12796 | 60.07592 | 20506 ft | 431 kts | 195° |
| 2026-05-04 18:10 | 56.09878 | 60.06335 | 21001 ft | 432 kts | 196° |
| 2026-05-04 18:10 | 56.06954 | 60.05077 | 21495 ft | 432 kts | 196° |
| 2026-05-04 18:10 | 56.04027 | 60.03821 | 21982 ft | 433 kts | 196° |
| 2026-05-04 18:10 | 56.01098 | 60.02566 | 22472 ft | 433 kts | 196° |
| 2026-05-04 18:11 | 55.98200 | 60.01327 | 22949 ft | 434 kts | 197° |
| 2026-05-04 18:11 | 55.95257 | 60.00070 | 23418 ft | 434 kts | 197° |
| 2026-05-04 18:11 | 55.92324 | 59.98820 | 23818 ft | 434 kts | 197° |
| 2026-05-04 18:11 | 55.89387 | 59.97570 | 24223 ft | 433 kts | 197° |
| 2026-05-04 18:12 | 55.86452 | 59.96323 | 24622 ft | 433 kts | 197° |
| 2026-05-04 18:12 | 55.83520 | 59.95079 | 24989 ft | 433 kts | 197° |
| 2026-05-04 18:12 | 55.80582 | 59.93834 | 25348 ft | 433 kts | 197° |
| 2026-05-04 18:12 | 55.77652 | 59.92595 | 25693 ft | 433 kts | 197° |
| 2026-05-04 18:13 | 55.74725 | 59.91358 | 26042 ft | 433 kts | 197° |
| 2026-05-04 18:13 | 55.71802 | 59.90126 | 26501 ft | 429 kts | 197° |
| 2026-05-04 18:13 | 55.66059 | 59.87714 | 27651 ft | 419 kts | 197° |
| 2026-05-04 18:14 | 55.63225 | 59.86525 | 28140 ft | 416 kts | 198° |
| 2026-05-04 18:14 | 55.60421 | 59.85349 | 28601 ft | 414 kts | 198° |
| 2026-05-04 18:14 | 55.57626 | 59.84178 | 29105 ft | 411 kts | 198° |
| 2026-05-04 18:15 | 55.52104 | 59.81871 | 30095 ft | 404 kts | 198° |
| 2026-05-04 18:15 | 55.46644 | 59.79592 | 30517 ft | 409 kts | 198° |
| 2026-05-04 18:15 | 55.43873 | 59.78438 | 30762 ft | 409 kts | 198° |
| 2026-05-04 18:16 | 55.41100 | 59.77288 | 31043 ft | 409 kts | 198° |
| 2026-05-04 18:16 | 55.38327 | 59.76147 | 31313 ft | 410 kts | 197° |
| 2026-05-04 18:16 | 55.35531 | 59.75067 | 31552 ft | 411 kts | 197° |
| 2026-05-04 18:17 | 55.29924 | 59.72986 | 32102 ft | 412 kts | 197° |
| 2026-05-04 18:17 | 55.27119 | 59.71939 | 32369 ft | 412 kts | 197° |
| 2026-05-04 18:17 | 55.21514 | 59.69805 | 32879 ft | 411 kts | 199° |
| 2026-05-04 18:18 | 55.18771 | 59.68405 | 33145 ft | 409 kts | 201° |
| 2026-05-04 18:18 | 55.16046 | 59.66931 | 33400 ft | 410 kts | 201° |
| 2026-05-04 18:18 | 55.13322 | 59.65447 | 33646 ft | 410 kts | 201° |
| 2026-05-04 18:18 | 55.10599 | 59.63969 | 33889 ft | 410 kts | 201° |
| 2026-05-04 18:19 | 55.05175 | 59.61050 | 34249 ft | 412 kts | 201° |
| 2026-05-04 18:19 | 55.02434 | 59.59585 | 34412 ft | 413 kts | 201° |
| 2026-05-04 18:19 | 54.99686 | 59.58121 | 34606 ft | 413 kts | 201° |
| 2026-05-04 18:20 | 54.96932 | 59.56656 | 34780 ft | 414 kts | 201° |
| 2026-05-04 18:20 | 54.94167 | 59.55188 | 34925 ft | 415 kts | 201° |
| 2026-05-04 18:20 | 54.91401 | 59.53724 | 35094 ft | 416 kts | 201° |
| 2026-05-04 18:20 | 54.88623 | 59.52253 | 35225 ft | 418 kts | 200° |
| 2026-05-04 18:21 | 54.85843 | 59.50781 | 35383 ft | 418 kts | 200° |
| 2026-05-04 18:21 | 54.83060 | 59.49312 | 35560 ft | 419 kts | 200° |
| 2026-05-04 18:21 | 54.80299 | 59.47855 | 35709 ft | 420 kts | 200° |
| 2026-05-04 18:21 | 54.77470 | 59.46365 | 35854 ft | 421 kts | 200° |
| 2026-05-04 18:22 | 54.71872 | 59.43423 | 35893 ft | 421 kts | 200° |
| 2026-05-04 18:22 | 54.66268 | 59.40427 | 35900 ft | 421 kts | 201° |
| 2026-05-04 18:23 | 54.60670 | 59.37413 | 35904 ft | 421 kts | 201° |
| 2026-05-04 18:23 | 54.55102 | 59.34429 | 35899 ft | 421 kts | 201° |
| 2026-05-04 18:24 | 54.49467 | 59.31422 | 35918 ft | 421 kts | 201° |
| 2026-05-04 18:24 | 54.43900 | 59.28462 | 35897 ft | 421 kts | 201° |
| 2026-05-04 18:25 | 54.38302 | 59.25494 | 35894 ft | 421 kts | 201° |
| 2026-05-04 18:25 | 54.32710 | 59.22538 | 35904 ft | 421 kts | 201° |
| 2026-05-04 18:26 | 54.27113 | 59.19586 | 35905 ft | 420 kts | 200° |
| 2026-05-04 18:26 | 54.21517 | 59.16644 | 35905 ft | 420 kts | 200° |
| 2026-05-04 18:27 | 54.15924 | 59.13711 | 35907 ft | 420 kts | 200° |
| 2026-05-04 18:27 | 54.10327 | 59.10785 | 35904 ft | 420 kts | 200° |
| 2026-05-04 18:28 | 54.04744 | 59.07873 | 35905 ft | 420 kts | 200° |
| 2026-05-04 18:28 | 53.99155 | 59.04992 | 35902 ft | 419 kts | 200° |
| 2026-05-04 18:29 | 53.93554 | 59.02180 | 35908 ft | 419 kts | 200° |
| 2026-05-04 18:29 | 53.87997 | 58.99401 | 35909 ft | 419 kts | 200° |
| 2026-05-04 18:30 | 53.79620 | 58.95212 | 35913 ft | 418 kts | 200° |
| 2026-05-04 18:31 | 53.74039 | 58.92427 | 35910 ft | 418 kts | 200° |